sensor_id;sensor_type;location;lat;lon;timestamp;temperature;humidity
10875;DHT22;5490;52.200;8.786;2023-03-11T09:17:50;4.70;99.90
10875;DHT22;5490;52.200;8.786;2023-03-11T09:20:18;7.20;99.90
10875;DHT22;5490;52.200;8.786;2023-03-11T09:22:45;7.40;99.90
10875;DHT22;5490;52.200;8.786;2023-03-11T09:25:13;7.50;99.90
10875;DHT22;5490;52.200;8.786;2023-03-11T09:27:40;7.50;99.90
10875;DHT22;5490;52.200;8.786;2023-03-11T09:30:08;7.50;99.90
10875;DHT22;5490;52.200;8.786;2023-03-11T09:32:34;7.60;99.90
10875;DHT22;5490;52.200;8.786;2023-03-11T09:35:03;7.40;99.90
10875;DHT22;5490;52.200;8.786;2023-03-11T09:37:30;7.40;99.90
10875;DHT22;5490;52.200;8.786;2023-03-11T09:39:57;7.50;99.90
10875;DHT22;5490;52.200;8.786;2023-03-11T09:42:30;7.60;99.90
10875;DHT22;5490;52.200;8.786;2023-03-11T09:45:02;7.70;99.90
10875;DHT22;5490;52.200;8.786;2023-03-11T09:47:40;7.80;99.90
10875;DHT22;5490;52.200;8.786;2023-03-11T09:50:16;7.90;99.90
10875;DHT22;5490;52.200;8.786;2023-03-11T09:52:52;8.00;99.90
10875;DHT22;5490;52.200;8.786;2023-03-11T09:55:38;8.10;99.90
10875;DHT22;5490;52.200;8.786;2023-03-11T09:58:12;8.30;99.90
10875;DHT22;5490;52.200;8.786;2023-03-11T10:00:40;8.30;99.90
10875;DHT22;5490;52.200;8.786;2023-03-11T10:03:16;8.50;99.90
10875;DHT22;5490;52.200;8.786;2023-03-11T10:05:50;8.70;99.90
10875;DHT22;5490;52.200;8.786;2023-03-11T10:08:22;8.80;99.90
10875;DHT22;5490;52.200;8.786;2023-03-11T10:10:55;8.80;99.90
10875;DHT22;5490;52.200;8.786;2023-03-11T10:13:28;8.80;99.90
10875;DHT22;5490;52.200;8.786;2023-03-11T10:16:05;8.80;99.90
10875;DHT22;5490;52.200;8.786;2023-03-11T10:18:47;8.90;99.90
10875;DHT22;5490;52.200;8.786;2023-03-11T10:21:29;8.90;99.90
10875;DHT22;5490;52.200;8.786;2023-03-11T10:24:11;8.80;99.90
10875;DHT22;5490;52.200;8.786;2023-03-11T10:26:41;8.80;99.90
10875;DHT22;5490;52.200;8.786;2023-03-11T10:29:15;8.70;99.90
10875;DHT22;5490;52.200;8.786;2023-03-11T10:31:45;8.60;99.90
10875;DHT22;5490;52.200;8.786;2023-03-11T10:34:17;8.50;99.90
10875;DHT22;5490;52.200;8.786;2023-03-11T10:36:53;8.40;99.90
10875;DHT22;5490;52.200;8.786;2023-03-11T10:39:22;8.30;99.90
10875;DHT22;5490;52.200;8.786;2023-03-11T10:41:52;8.30;99.90
10875;DHT22;5490;52.200;8.786;2023-03-11T10:44:22;8.10;99.90
10875;DHT22;5490;52.200;8.786;2023-03-11T10:46:50;7.90;99.90
10875;DHT22;5490;52.200;8.786;2023-03-11T10:49:17;7.70;99.90
10875;DHT22;5490;52.200;8.786;2023-03-11T10:51:45;7.50;99.90
10875;DHT22;5490;52.200;8.786;2023-03-11T10:54:26;7.30;99.90
10875;DHT22;5490;52.200;8.786;2023-03-11T10:56:55;7.10;99.90
10875;DHT22;5490;52.200;8.786;2023-03-11T10:59:28;6.90;99.90
10875;DHT22;5490;52.200;8.786;2023-03-11T11:01:57;6.80;99.90
10875;DHT22;5490;52.200;8.786;2023-03-11T11:04:32;6.60;99.90
10875;DHT22;5490;52.200;8.786;2023-03-11T11:07:19;6.50;99.90
10875;DHT22;5490;52.200;8.786;2023-03-11T11:09:50;6.30;99.90
10875;DHT22;5490;52.200;8.786;2023-03-11T11:12:35;6.20;99.90
10875;DHT22;5490;52.200;8.786;2023-03-11T11:15:01;6.10;99.90
10875;DHT22;5490;52.200;8.786;2023-03-11T11:17:30;6.10;99.90
10875;DHT22;5490;52.200;8.786;2023-03-11T11:19:58;6.00;99.90
10875;DHT22;5490;52.200;8.786;2023-03-11T11:22:28;5.90;99.90
10875;DHT22;5490;52.200;8.786;2023-03-11T11:24:57;5.90;99.90
10875;DHT22;5490;52.200;8.786;2023-03-11T11:27:26;5.70;99.90
10875;DHT22;5490;52.200;8.786;2023-03-11T11:30:13;5.60;99.90
10875;DHT22;5490;52.200;8.786;2023-03-11T11:32:40;5.50;99.90
10875;DHT22;5490;52.200;8.786;2023-03-11T11:35:11;5.50;99.90
10875;DHT22;5490;52.200;8.786;2023-03-11T11:37:40;5.50;99.90
10875;DHT22;5490;52.200;8.786;2023-03-11T11:40:20;5.50;99.90
10875;DHT22;5490;52.200;8.786;2023-03-11T11:42:51;5.50;99.90
10875;DHT22;5490;52.200;8.786;2023-03-11T11:45:26;5.50;99.90
10875;DHT22;5490;52.200;8.786;2023-03-11T11:47:57;5.50;99.90
10875;DHT22;5490;52.200;8.786;2023-03-11T11:50:27;5.50;99.90
10875;DHT22;5490;52.200;8.786;2023-03-11T11:53:00;5.30;99.90
10875;DHT22;5490;52.200;8.786;2023-03-11T11:55:30;5.30;99.90
10875;DHT22;5490;52.200;8.786;2023-03-11T11:57:58;5.20;99.90
10875;DHT22;5490;52.200;8.786;2023-03-11T12:00:33;5.20;99.90
10875;DHT22;5490;52.200;8.786;2023-03-11T12:03:20;5.20;99.90
10875;DHT22;5490;52.200;8.786;2023-03-11T12:05:56;5.20;99.90
10875;DHT22;5490;52.200;8.786;2023-03-11T12:08:31;5.10;99.90
10875;DHT22;5490;52.200;8.786;2023-03-11T12:11:05;5.10;99.90
10875;DHT22;5490;52.200;8.786;2023-03-11T12:13:49;5.10;99.90
10875;DHT22;5490;52.200;8.786;2023-03-11T12:16:25;5.10;99.90
10875;DHT22;5490;52.200;8.786;2023-03-11T12:19:00;5.10;99.90
10875;DHT22;5490;52.200;8.786;2023-03-11T12:21:41;5.10;99.90
10875;DHT22;5490;52.200;8.786;2023-03-11T12:24:20;5.10;99.90
10875;DHT22;5490;52.200;8.786;2023-03-11T12:26:53;5.10;99.90
10875;DHT22;5490;52.200;8.786;2023-03-11T12:29:25;5.10;99.90
10875;DHT22;5490;52.200;8.786;2023-03-11T12:31:54;5.10;99.90
10875;DHT22;5490;52.200;8.786;2023-03-11T12:34:23;5.10;99.90
10875;DHT22;5490;52.200;8.786;2023-03-11T12:36:50;5.10;99.90
10875;DHT22;5490;52.200;8.786;2023-03-11T12:39:20;5.10;99.90
10875;DHT22;5490;52.200;8.786;2023-03-11T12:41:48;5.10;99.90
10875;DHT22;5490;52.200;8.786;2023-03-11T12:44:25;5.10;99.90
10875;DHT22;5490;52.200;8.786;2023-03-11T12:47:18;5.10;99.90
10875;DHT22;5490;52.200;8.786;2023-03-11T12:49:46;5.10;99.90
10875;DHT22;5490;52.200;8.786;2023-03-11T12:52:19;5.20;99.90
10875;DHT22;5490;52.200;8.786;2023-03-11T12:54:47;5.20;99.90
10875;DHT22;5490;52.200;8.786;2023-03-11T12:57:31;5.20;99.90
10875;DHT22;5490;52.200;8.786;2023-03-11T13:00:40;5.20;99.90
10875;DHT22;5490;52.200;8.786;2023-03-11T13:03:31;5.30;99.90
10875;DHT22;5490;52.200;8.786;2023-03-11T13:06:20;5.30;99.90
10875;DHT22;5490;52.200;8.786;2023-03-11T13:08:50;5.20;99.90
10875;DHT22;5490;52.200;8.786;2023-03-11T13:11:33;5.20;99.90
10875;DHT22;5490;52.200;8.786;2023-03-11T13:14:26;5.20;99.90
10875;DHT22;5490;52.200;8.786;2023-03-11T13:16:56;5.30;99.90
10875;DHT22;5490;52.200;8.786;2023-03-11T13:19:35;5.40;99.90
10875;DHT22;5490;52.200;8.786;2023-03-11T13:22:04;5.40;99.90
10875;DHT22;5490;52.200;8.786;2023-03-11T13:24:50;5.40;99.90
10875;DHT22;5490;52.200;8.786;2023-03-11T13:27:33;5.50;99.90
10875;DHT22;5490;52.200;8.786;2023-03-11T13:30:09;5.50;99.90
10875;DHT22;5490;52.200;8.786;2023-03-11T13:33:02;5.50;99.90
10875;DHT22;5490;52.200;8.786;2023-03-11T13:35:46;5.50;99.90
10875;DHT22;5490;52.200;8.786;2023-03-11T13:38:39;5.50;99.90
10875;DHT22;5490;52.200;8.786;2023-03-11T13:41:15;5.50;99.90
10875;DHT22;5490;52.200;8.786;2023-03-11T13:43:44;5.50;99.90
10875;DHT22;5490;52.200;8.786;2023-03-11T13:46:17;5.50;99.90
10875;DHT22;5490;52.200;8.786;2023-03-11T13:48:48;5.60;99.90
10875;DHT22;5490;52.200;8.786;2023-03-11T13:51:17;5.60;99.90
10875;DHT22;5490;52.200;8.786;2023-03-11T13:53:48;5.60;99.90
10875;DHT22;5490;52.200;8.786;2023-03-11T13:56:25;5.50;99.90
10875;DHT22;5490;52.200;8.786;2023-03-11T13:58:53;5.50;99.90
10875;DHT22;5490;52.200;8.786;2023-03-11T14:01:22;5.40;99.90
10875;DHT22;5490;52.200;8.786;2023-03-11T14:03:50;5.40;99.90
10875;DHT22;5490;52.200;8.786;2023-03-11T14:06:18;5.30;99.90
10875;DHT22;5490;52.200;8.786;2023-03-11T14:08:51;5.30;99.90
10875;DHT22;5490;52.200;8.786;2023-03-11T14:11:18;5.30;99.90
10875;DHT22;5490;52.200;8.786;2023-03-11T14:13:46;5.20;99.90
10875;DHT22;5490;52.200;8.786;2023-03-11T14:16:15;5.30;99.90
10875;DHT22;5490;52.200;8.786;2023-03-11T14:18:44;5.30;99.90
10875;DHT22;5490;52.200;8.786;2023-03-11T14:21:15;5.30;99.90
10875;DHT22;5490;52.200;8.786;2023-03-11T14:23:44;5.30;99.90
10875;DHT22;5490;52.200;8.786;2023-03-11T14:26:14;5.40;99.90
10875;DHT22;5490;52.200;8.786;2023-03-11T14:28:44;5.40;99.90
10875;DHT22;5490;52.200;8.786;2023-03-11T14:31:23;5.50;99.90
10875;DHT22;5490;52.200;8.786;2023-03-11T14:33:54;5.50;99.90
10875;DHT22;5490;52.200;8.786;2023-03-11T14:36:23;5.50;99.90
10875;DHT22;5490;52.200;8.786;2023-03-11T14:38:50;5.40;99.90
10875;DHT22;5490;52.200;8.786;2023-03-11T14:41:17;5.40;99.90
10875;DHT22;5490;52.200;8.786;2023-03-11T14:43:47;5.40;99.90
10875;DHT22;5490;52.200;8.786;2023-03-11T14:46:20;5.50;99.90
10875;DHT22;5490;52.200;8.786;2023-03-11T14:48:47;5.50;99.90
10875;DHT22;5490;52.200;8.786;2023-03-11T14:51:17;5.60;99.90
10875;DHT22;5490;52.200;8.786;2023-03-11T14:53:50;5.70;99.90
10875;DHT22;5490;52.200;8.786;2023-03-11T14:56:20;5.70;99.90
10875;DHT22;5490;52.200;8.786;2023-03-11T14:58:48;5.70;99.90
10875;DHT22;5490;52.200;8.786;2023-03-11T15:01:20;5.70;99.90
10875;DHT22;5490;52.200;8.786;2023-03-11T15:03:50;5.70;99.90
10875;DHT22;5490;52.200;8.786;2023-03-11T15:06:20;5.80;99.90
10875;DHT22;5490;52.200;8.786;2023-03-11T15:08:54;5.80;99.90
10875;DHT22;5490;52.200;8.786;2023-03-11T15:11:23;5.80;99.90
10875;DHT22;5490;52.200;8.786;2023-03-11T15:13:51;5.70;99.90
10875;DHT22;5490;52.200;8.786;2023-03-11T15:16:29;5.70;99.90
10875;DHT22;5490;52.200;8.786;2023-03-11T15:18:59;5.70;99.90
10875;DHT22;5490;52.200;8.786;2023-03-11T15:21:26;5.60;99.90
10875;DHT22;5490;52.200;8.786;2023-03-11T15:23:59;5.60;99.90
10875;DHT22;5490;52.200;8.786;2023-03-11T15:26:28;5.60;99.90
10875;DHT22;5490;52.200;8.786;2023-03-11T15:28:57;5.50;99.90
10875;DHT22;5490;52.200;8.786;2023-03-11T15:31:32;5.50;99.90
10875;DHT22;5490;52.200;8.786;2023-03-11T15:34:11;5.50;99.90
10875;DHT22;5490;52.200;8.786;2023-03-11T15:36:56;5.40;99.90
10875;DHT22;5490;52.200;8.786;2023-03-11T15:39:27;5.40;99.90
10875;DHT22;5490;52.200;8.786;2023-03-11T15:42:12;5.40;99.90
10875;DHT22;5490;52.200;8.786;2023-03-11T15:44:41;5.30;99.90
10875;DHT22;5490;52.200;8.786;2023-03-11T15:47:12;5.40;99.90
10875;DHT22;5490;52.200;8.786;2023-03-11T15:49:39;5.30;99.90
10875;DHT22;5490;52.200;8.786;2023-03-11T16:59:43;5.30;99.90
10875;DHT22;5490;52.200;8.786;2023-03-11T17:02:11;5.00;99.90
10875;DHT22;5490;52.200;8.786;2023-03-11T17:04:38;5.00;99.90
10875;DHT22;5490;52.200;8.786;2023-03-11T17:07:06;4.90;99.90
10875;DHT22;5490;52.200;8.786;2023-03-11T17:09:33;4.80;99.90
10875;DHT22;5490;52.200;8.786;2023-03-11T17:12:01;4.70;99.90
10875;DHT22;5490;52.200;8.786;2023-03-11T17:14:28;4.70;99.90
10875;DHT22;5490;52.200;8.786;2023-03-11T17:16:56;4.60;99.90
10875;DHT22;5490;52.200;8.786;2023-03-11T17:19:23;4.60;99.90
10875;DHT22;5490;52.200;8.786;2023-03-11T17:21:50;4.50;99.90
10875;DHT22;5490;52.200;8.786;2023-03-11T17:24:17;4.40;99.90
10875;DHT22;5490;52.200;8.786;2023-03-11T17:26:44;4.30;99.90
10875;DHT22;5490;52.200;8.786;2023-03-11T17:29:11;4.30;99.90
10875;DHT22;5490;52.200;8.786;2023-03-11T17:31:37;4.20;99.90
10875;DHT22;5490;52.200;8.786;2023-03-11T17:34:05;4.20;99.90
10875;DHT22;5490;52.200;8.786;2023-03-11T17:36:33;4.10;99.90
10875;DHT22;5490;52.200;8.786;2023-03-11T17:39:00;4.00;99.90
10875;DHT22;5490;52.200;8.786;2023-03-11T17:41:27;4.00;99.90
10875;DHT22;5490;52.200;8.786;2023-03-11T17:43:54;3.90;99.90
10875;DHT22;5490;52.200;8.786;2023-03-11T17:46:22;3.90;99.90
10875;DHT22;5490;52.200;8.786;2023-03-11T17:48:49;3.80;99.90
10875;DHT22;5490;52.200;8.786;2023-03-11T17:51:19;3.70;99.90
10875;DHT22;5490;52.200;8.786;2023-03-11T17:53:46;3.70;99.90
10875;DHT22;5490;52.200;8.786;2023-03-11T17:56:15;3.60;99.90
10875;DHT22;5490;52.200;8.786;2023-03-11T17:58:42;3.60;99.90
10875;DHT22;5490;52.200;8.786;2023-03-11T18:01:12;3.50;99.90
10875;DHT22;5490;52.200;8.786;2023-03-11T18:03:39;3.50;99.90
10875;DHT22;5490;52.200;8.786;2023-03-11T18:06:06;3.50;99.90
10875;DHT22;5490;52.200;8.786;2023-03-11T18:08:35;3.40;99.90
10875;DHT22;5490;52.200;8.786;2023-03-11T18:11:03;3.40;99.90
10875;DHT22;5490;52.200;8.786;2023-03-11T18:13:31;3.30;99.90
10875;DHT22;5490;52.200;8.786;2023-03-11T18:16:00;3.30;99.90
10875;DHT22;5490;52.200;8.786;2023-03-11T18:18:29;3.30;99.90
10875;DHT22;5490;52.200;8.786;2023-03-11T18:21:00;3.20;99.90
10875;DHT22;5490;52.200;8.786;2023-03-11T18:23:27;3.20;99.90
10875;DHT22;5490;52.200;8.786;2023-03-11T18:25:55;3.10;99.90
10875;DHT22;5490;52.200;8.786;2023-03-11T18:28:22;3.10;99.90
10875;DHT22;5490;52.200;8.786;2023-03-11T18:30:49;3.00;99.90
10875;DHT22;5490;52.200;8.786;2023-03-11T18:33:15;3.00;99.90
10875;DHT22;5490;52.200;8.786;2023-03-11T18:35:42;2.90;99.90
10875;DHT22;5490;52.200;8.786;2023-03-11T18:38:09;2.90;99.90
10875;DHT22;5490;52.200;8.786;2023-03-11T18:40:36;2.90;99.90
10875;DHT22;5490;52.200;8.786;2023-03-11T18:43:05;2.90;99.90
10875;DHT22;5490;52.200;8.786;2023-03-11T18:45:32;2.80;99.90
10875;DHT22;5490;52.200;8.786;2023-03-11T18:47:59;2.80;99.90
10875;DHT22;5490;52.200;8.786;2023-03-11T18:50:27;2.80;99.90
10875;DHT22;5490;52.200;8.786;2023-03-11T18:52:54;2.80;99.90
10875;DHT22;5490;52.200;8.786;2023-03-11T18:55:20;2.80;99.90
10875;DHT22;5490;52.200;8.786;2023-03-11T18:57:47;2.80;99.90
10875;DHT22;5490;52.200;8.786;2023-03-11T19:00:16;2.80;99.90
10875;DHT22;5490;52.200;8.786;2023-03-11T19:02:49;2.80;99.90
10875;DHT22;5490;52.200;8.786;2023-03-11T19:05:16;2.70;99.90
10875;DHT22;5490;52.200;8.786;2023-03-11T19:07:43;2.70;99.90
10875;DHT22;5490;52.200;8.786;2023-03-11T19:10:10;2.70;99.90
10875;DHT22;5490;52.200;8.786;2023-03-11T19:12:39;2.70;99.90
10875;DHT22;5490;52.200;8.786;2023-03-11T19:15:06;2.70;99.90
10875;DHT22;5490;52.200;8.786;2023-03-11T19:17:35;2.70;99.90
10875;DHT22;5490;52.200;8.786;2023-03-11T19:20:02;2.70;99.90
10875;DHT22;5490;52.200;8.786;2023-03-11T19:22:30;2.70;99.90
10875;DHT22;5490;52.200;8.786;2023-03-11T19:24:57;2.70;99.90
10875;DHT22;5490;52.200;8.786;2023-03-11T19:27:23;2.70;99.90
10875;DHT22;5490;52.200;8.786;2023-03-11T19:29:50;2.70;99.90
10875;DHT22;5490;52.200;8.786;2023-03-11T19:32:17;2.70;99.90
10875;DHT22;5490;52.200;8.786;2023-03-11T19:34:45;2.70;99.90
10875;DHT22;5490;52.200;8.786;2023-03-11T19:37:12;2.70;99.90
10875;DHT22;5490;52.200;8.786;2023-03-11T19:39:39;2.70;99.90
10875;DHT22;5490;52.200;8.786;2023-03-11T19:42:05;2.70;99.90
10875;DHT22;5490;52.200;8.786;2023-03-11T19:44:32;2.70;99.90
10875;DHT22;5490;52.200;8.786;2023-03-11T19:46:59;2.70;99.90
10875;DHT22;5490;52.200;8.786;2023-03-11T19:49:25;2.70;99.90
10875;DHT22;5490;52.200;8.786;2023-03-11T19:51:53;2.70;99.90
10875;DHT22;5490;52.200;8.786;2023-03-11T19:54:20;2.70;99.90
10875;DHT22;5490;52.200;8.786;2023-03-11T19:56:48;2.70;99.90
10875;DHT22;5490;52.200;8.786;2023-03-11T19:59:15;2.70;99.90
10875;DHT22;5490;52.200;8.786;2023-03-11T20:01:41;2.70;99.90
10875;DHT22;5490;52.200;8.786;2023-03-11T20:04:08;2.60;99.90
10875;DHT22;5490;52.200;8.786;2023-03-11T20:06:35;2.60;99.90
10875;DHT22;5490;52.200;8.786;2023-03-11T20:09:03;2.60;99.90
10875;DHT22;5490;52.200;8.786;2023-03-11T20:11:31;2.60;99.90
10875;DHT22;5490;52.200;8.786;2023-03-11T20:13:57;2.60;99.90
10875;DHT22;5490;52.200;8.786;2023-03-11T20:16:24;2.60;99.90
10875;DHT22;5490;52.200;8.786;2023-03-11T20:18:51;2.60;99.90
10875;DHT22;5490;52.200;8.786;2023-03-11T20:21:18;2.50;99.90
10875;DHT22;5490;52.200;8.786;2023-03-11T20:23:44;2.50;99.90
10875;DHT22;5490;52.200;8.786;2023-03-11T20:26:16;2.50;99.90
10875;DHT22;5490;52.200;8.786;2023-03-11T20:28:43;2.50;99.90
10875;DHT22;5490;52.200;8.786;2023-03-11T20:31:13;2.50;99.90
10875;DHT22;5490;52.200;8.786;2023-03-11T20:33:41;2.50;99.90
10875;DHT22;5490;52.200;8.786;2023-03-11T20:36:10;2.40;99.90
10875;DHT22;5490;52.200;8.786;2023-03-11T20:38:43;2.40;99.90
10875;DHT22;5490;52.200;8.786;2023-03-11T20:41:10;2.40;99.90
10875;DHT22;5490;52.200;8.786;2023-03-11T20:43:39;2.40;99.90
10875;DHT22;5490;52.200;8.786;2023-03-11T20:46:07;2.30;99.90
10875;DHT22;5490;52.200;8.786;2023-03-11T20:48:35;2.30;99.90
10875;DHT22;5490;52.200;8.786;2023-03-11T20:51:05;2.20;99.90
10875;DHT22;5490;52.200;8.786;2023-03-11T20:53:33;2.20;99.90
10875;DHT22;5490;52.200;8.786;2023-03-11T20:56:05;2.20;99.90
